sensor_id;sensor_type;location;lat;lon;timestamp;P1;durP1;ratioP1;P2;durP2;ratioP2
6497;SDS011;3282;48.358;10.958;2022-07-06T00:00:16;4.68;;;2.50;;
6497;SDS011;3282;48.358;10.958;2022-07-06T00:02:43;7.53;;;2.60;;
6497;SDS011;3282;48.358;10.958;2022-07-06T00:05:09;4.82;;;2.45;;
6497;SDS011;3282;48.358;10.958;2022-07-06T00:07:36;4.30;;;2.50;;
6497;SDS011;3282;48.358;10.958;2022-07-06T00:10:03;5.90;;;2.70;;
6497;SDS011;3282;48.358;10.958;2022-07-06T00:12:30;4.47;;;2.50;;
6497;SDS011;3282;48.358;10.958;2022-07-06T00:14:56;6.10;;;2.70;;
6497;SDS011;3282;48.358;10.958;2022-07-06T00:17:23;6.65;;;2.80;;
6497;SDS011;3282;48.358;10.958;2022-07-06T00:19:50;5.63;;;2.90;;
6497;SDS011;3282;48.358;10.958;2022-07-06T00:22:16;4.00;;;2.60;;
6497;SDS011;3282;48.358;10.958;2022-07-06T00:24:43;5.15;;;2.97;;
6497;SDS011;3282;48.358;10.958;2022-07-06T00:27:09;4.10;;;2.70;;
6497;SDS011;3282;48.358;10.958;2022-07-06T00:29:36;4.60;;;2.42;;
6497;SDS011;3282;48.358;10.958;2022-07-06T00:32:03;5.88;;;2.58;;
6497;SDS011;3282;48.358;10.958;2022-07-06T00:34:29;4.65;;;2.60;;
6497;SDS011;3282;48.358;10.958;2022-07-06T00:36:56;5.15;;;2.70;;
6497;SDS011;3282;48.358;10.958;2022-07-06T00:39:23;5.50;;;2.50;;
6497;SDS011;3282;48.358;10.958;2022-07-06T00:41:55;5.25;;;2.65;;
6497;SDS011;3282;48.358;10.958;2022-07-06T00:44:22;5.88;;;2.63;;
6497;SDS011;3282;48.358;10.958;2022-07-06T00:46:49;4.53;;;2.47;;
6497;SDS011;3282;48.358;10.958;2022-07-06T00:49:16;3.88;;;2.60;;
6497;SDS011;3282;48.358;10.958;2022-07-06T00:52:01;6.10;;;2.55;;
6497;SDS011;3282;48.358;10.958;2022-07-06T00:54:30;6.05;;;2.50;;
6497;SDS011;3282;48.358;10.958;2022-07-06T00:56:58;5.10;;;2.65;;
6497;SDS011;3282;48.358;10.958;2022-07-06T00:59:24;4.70;;;2.80;;
6497;SDS011;3282;48.358;10.958;2022-07-06T01:01:53;3.30;;;2.60;;
6497;SDS011;3282;48.358;10.958;2022-07-06T01:04:20;3.65;;;2.60;;
6497;SDS011;3282;48.358;10.958;2022-07-06T01:06:47;5.68;;;2.80;;
6497;SDS011;3282;48.358;10.958;2022-07-06T01:09:14;4.85;;;2.67;;
6497;SDS011;3282;48.358;10.958;2022-07-06T01:11:41;4.18;;;2.70;;
6497;SDS011;3282;48.358;10.958;2022-07-06T01:14:08;6.13;;;2.60;;
6497;SDS011;3282;48.358;10.958;2022-07-06T01:16:35;4.90;;;2.63;;
6497;SDS011;3282;48.358;10.958;2022-07-06T01:19:03;5.70;;;2.80;;
6497;SDS011;3282;48.358;10.958;2022-07-06T01:21:29;4.10;;;2.63;;
6497;SDS011;3282;48.358;10.958;2022-07-06T01:23:56;4.93;;;2.65;;
6497;SDS011;3282;48.358;10.958;2022-07-06T01:26:23;5.60;;;2.88;;
6497;SDS011;3282;48.358;10.958;2022-07-06T01:28:50;5.28;;;2.72;;
6497;SDS011;3282;48.358;10.958;2022-07-06T01:31:22;4.32;;;2.90;;
6497;SDS011;3282;48.358;10.958;2022-07-06T01:33:51;6.25;;;2.65;;
6497;SDS011;3282;48.358;10.958;2022-07-06T01:36:19;5.53;;;2.80;;
6497;SDS011;3282;48.358;10.958;2022-07-06T01:38:50;6.07;;;2.83;;
6497;SDS011;3282;48.358;10.958;2022-07-06T01:41:18;5.55;;;2.80;;
6497;SDS011;3282;48.358;10.958;2022-07-06T01:43:46;5.20;;;2.90;;
6497;SDS011;3282;48.358;10.958;2022-07-06T01:46:13;6.18;;;2.90;;
6497;SDS011;3282;48.358;10.958;2022-07-06T01:48:41;4.03;;;2.70;;
6497;SDS011;3282;48.358;10.958;2022-07-06T01:51:07;5.28;;;3.20;;
6497;SDS011;3282;48.358;10.958;2022-07-06T01:53:36;4.57;;;3.15;;
6497;SDS011;3282;48.358;10.958;2022-07-06T01:56:04;4.80;;;3.20;;
6497;SDS011;3282;48.358;10.958;2022-07-06T01:58:31;6.25;;;3.00;;
6497;SDS011;3282;48.358;10.958;2022-07-06T02:00:58;4.65;;;2.97;;
6497;SDS011;3282;48.358;10.958;2022-07-06T02:03:25;5.97;;;3.22;;
6497;SDS011;3282;48.358;10.958;2022-07-06T02:05:52;8.07;;;3.20;;
6497;SDS011;3282;48.358;10.958;2022-07-06T02:08:19;5.35;;;3.00;;
6497;SDS011;3282;48.358;10.958;2022-07-06T02:10:46;6.65;;;3.22;;
6497;SDS011;3282;48.358;10.958;2022-07-06T02:13:13;5.25;;;3.20;;
6497;SDS011;3282;48.358;10.958;2022-07-06T02:15:40;4.63;;;3.00;;
6497;SDS011;3282;48.358;10.958;2022-07-06T02:18:06;6.63;;;3.30;;
6497;SDS011;3282;48.358;10.958;2022-07-06T02:20:33;9.60;;;3.20;;
6497;SDS011;3282;48.358;10.958;2022-07-06T02:23:00;4.45;;;3.10;;
6497;SDS011;3282;48.358;10.958;2022-07-06T02:25:26;6.05;;;3.20;;
6497;SDS011;3282;48.358;10.958;2022-07-06T02:27:54;4.47;;;3.17;;
6497;SDS011;3282;48.358;10.958;2022-07-06T02:30:22;4.32;;;3.10;;
6497;SDS011;3282;48.358;10.958;2022-07-06T02:32:49;4.63;;;3.25;;
6497;SDS011;3282;48.358;10.958;2022-07-06T02:35:16;6.95;;;3.60;;
6497;SDS011;3282;48.358;10.958;2022-07-06T02:37:43;5.47;;;3.17;;
6497;SDS011;3282;48.358;10.958;2022-07-06T02:40:10;6.43;;;3.25;;
6497;SDS011;3282;48.358;10.958;2022-07-06T02:42:37;4.43;;;3.08;;
6497;SDS011;3282;48.358;10.958;2022-07-06T02:45:05;7.85;;;3.25;;
6497;SDS011;3282;48.358;10.958;2022-07-06T02:47:33;6.25;;;3.05;;
6497;SDS011;3282;48.358;10.958;2022-07-06T02:49:59;4.32;;;3.30;;
6497;SDS011;3282;48.358;10.958;2022-07-06T02:52:26;4.97;;;3.30;;
6497;SDS011;3282;48.358;10.958;2022-07-06T02:54:53;5.32;;;3.10;;
6497;SDS011;3282;48.358;10.958;2022-07-06T02:57:20;4.38;;;3.00;;
6497;SDS011;3282;48.358;10.958;2022-07-06T02:59:47;6.03;;;3.10;;
6497;SDS011;3282;48.358;10.958;2022-07-06T03:02:16;6.93;;;3.30;;
6497;SDS011;3282;48.358;10.958;2022-07-06T03:04:44;4.60;;;3.10;;
6497;SDS011;3282;48.358;10.958;2022-07-06T03:07:12;6.95;;;3.67;;
6497;SDS011;3282;48.358;10.958;2022-07-06T03:09:38;5.05;;;3.35;;
6497;SDS011;3282;48.358;10.958;2022-07-06T03:12:05;4.43;;;3.03;;
6497;SDS011;3282;48.358;10.958;2022-07-06T03:14:34;6.05;;;3.30;;
6497;SDS011;3282;48.358;10.958;2022-07-06T03:17:00;5.15;;;3.45;;
6497;SDS011;3282;48.358;10.958;2022-07-06T03:19:27;5.88;;;3.08;;
6497;SDS011;3282;48.358;10.958;2022-07-06T03:21:55;6.07;;;3.70;;
6497;SDS011;3282;48.358;10.958;2022-07-06T03:24:22;5.60;;;3.60;;
6497;SDS011;3282;48.358;10.958;2022-07-06T03:26:49;6.10;;;3.50;;
6497;SDS011;3282;48.358;10.958;2022-07-06T03:29:16;5.40;;;3.72;;
6497;SDS011;3282;48.358;10.958;2022-07-06T03:31:42;4.57;;;3.20;;
6497;SDS011;3282;48.358;10.958;2022-07-06T03:34:09;7.35;;;3.90;;
6497;SDS011;3282;48.358;10.958;2022-07-06T03:36:37;4.15;;;3.10;;
6497;SDS011;3282;48.358;10.958;2022-07-06T03:39:06;4.30;;;3.20;;
6497;SDS011;3282;48.358;10.958;2022-07-06T03:41:35;5.13;;;3.58;;
6497;SDS011;3282;48.358;10.958;2022-07-06T03:44:02;8.63;;;3.90;;
6497;SDS011;3282;48.358;10.958;2022-07-06T03:46:30;5.07;;;3.63;;
6497;SDS011;3282;48.358;10.958;2022-07-06T03:48:57;4.78;;;3.13;;
6497;SDS011;3282;48.358;10.958;2022-07-06T03:51:23;6.78;;;3.33;;
6497;SDS011;3282;48.358;10.958;2022-07-06T03:53:51;5.10;;;3.63;;
6497;SDS011;3282;48.358;10.958;2022-07-06T03:56:18;6.28;;;3.47;;
6497;SDS011;3282;48.358;10.958;2022-07-06T03:59:11;5.70;;;4.00;;
6497;SDS011;3282;48.358;10.958;2022-07-06T04:01:39;5.25;;;4.00;;
6497;SDS011;3282;48.358;10.958;2022-07-06T04:04:10;6.15;;;3.70;;
6497;SDS011;3282;48.358;10.958;2022-07-06T04:06:41;5.88;;;3.53;;
6497;SDS011;3282;48.358;10.958;2022-07-06T04:09:07;6.90;;;3.42;;
6497;SDS011;3282;48.358;10.958;2022-07-06T04:11:36;6.95;;;3.58;;
6497;SDS011;3282;48.358;10.958;2022-07-06T04:14:04;6.25;;;3.58;;
6497;SDS011;3282;48.358;10.958;2022-07-06T04:16:32;6.05;;;3.60;;
6497;SDS011;3282;48.358;10.958;2022-07-06T04:18:59;5.72;;;3.70;;
6497;SDS011;3282;48.358;10.958;2022-07-06T04:21:26;6.55;;;3.63;;
6497;SDS011;3282;48.358;10.958;2022-07-06T04:23:52;4.85;;;3.60;;
6497;SDS011;3282;48.358;10.958;2022-07-06T04:26:19;5.90;;;3.88;;
6497;SDS011;3282;48.358;10.958;2022-07-06T04:28:45;5.90;;;3.60;;
6497;SDS011;3282;48.358;10.958;2022-07-06T04:31:12;8.38;;;3.45;;
6497;SDS011;3282;48.358;10.958;2022-07-06T04:33:44;6.78;;;3.30;;
6497;SDS011;3282;48.358;10.958;2022-07-06T04:36:10;6.97;;;3.40;;
6497;SDS011;3282;48.358;10.958;2022-07-06T04:38:41;4.72;;;3.00;;
6497;SDS011;3282;48.358;10.958;2022-07-06T04:41:09;4.80;;;3.10;;
6497;SDS011;3282;48.358;10.958;2022-07-06T04:43:37;5.25;;;3.03;;
6497;SDS011;3282;48.358;10.958;2022-07-06T04:46:04;5.38;;;3.10;;
6497;SDS011;3282;48.358;10.958;2022-07-06T04:48:35;6.25;;;2.88;;
6497;SDS011;3282;48.358;10.958;2022-07-06T04:51:08;4.40;;;3.10;;
6497;SDS011;3282;48.358;10.958;2022-07-06T04:53:35;5.13;;;2.67;;
6497;SDS011;3282;48.358;10.958;2022-07-06T04:56:03;6.35;;;3.03;;
6497;SDS011;3282;48.358;10.958;2022-07-06T04:58:33;5.13;;;2.83;;
6497;SDS011;3282;48.358;10.958;2022-07-06T05:01:00;4.32;;;2.70;;
6497;SDS011;3282;48.358;10.958;2022-07-06T05:03:27;5.57;;;2.90;;
6497;SDS011;3282;48.358;10.958;2022-07-06T05:05:54;5.78;;;2.90;;
6497;SDS011;3282;48.358;10.958;2022-07-06T05:08:21;4.75;;;2.90;;
6497;SDS011;3282;48.358;10.958;2022-07-06T05:10:49;4.28;;;2.70;;
6497;SDS011;3282;48.358;10.958;2022-07-06T05:13:15;5.53;;;2.83;;
6497;SDS011;3282;48.358;10.958;2022-07-06T05:15:42;4.38;;;2.67;;
6497;SDS011;3282;48.358;10.958;2022-07-06T05:18:09;4.35;;;2.60;;
6497;SDS011;3282;48.358;10.958;2022-07-06T05:20:40;5.50;;;2.90;;
6497;SDS011;3282;48.358;10.958;2022-07-06T05:23:06;4.47;;;2.70;;
6497;SDS011;3282;48.358;10.958;2022-07-06T05:25:33;5.22;;;2.90;;
6497;SDS011;3282;48.358;10.958;2022-07-06T05:28:00;6.47;;;2.83;;
6497;SDS011;3282;48.358;10.958;2022-07-06T05:30:28;5.32;;;2.53;;
6497;SDS011;3282;48.358;10.958;2022-07-06T05:32:54;5.95;;;2.92;;
6497;SDS011;3282;48.358;10.958;2022-07-06T05:35:21;6.78;;;3.40;;
6497;SDS011;3282;48.358;10.958;2022-07-06T05:38:07;4.88;;;3.30;;
6497;SDS011;3282;48.358;10.958;2022-07-06T05:40:34;6.88;;;3.20;;
6497;SDS011;3282;48.358;10.958;2022-07-06T05:43:01;7.78;;;3.00;;
6497;SDS011;3282;48.358;10.958;2022-07-06T05:45:28;4.50;;;2.80;;
6497;SDS011;3282;48.358;10.958;2022-07-06T05:47:55;5.47;;;2.97;;
6497;SDS011;3282;48.358;10.958;2022-07-06T05:50:42;7.75;;;2.80;;
6497;SDS011;3282;48.358;10.958;2022-07-06T05:53:09;6.07;;;2.90;;
6497;SDS011;3282;48.358;10.958;2022-07-06T05:55:46;6.25;;;2.90;;
6497;SDS011;3282;48.358;10.958;2022-07-06T05:58:14;6.15;;;3.10;;
6497;SDS011;3282;48.358;10.958;2022-07-06T06:00:43;5.80;;;2.80;;
6497;SDS011;3282;48.358;10.958;2022-07-06T06:03:14;6.65;;;2.70;;
6497;SDS011;3282;48.358;10.958;2022-07-06T06:05:41;10.15;;;2.90;;
6497;SDS011;3282;48.358;10.958;2022-07-06T06:08:09;6.35;;;3.25;;
6497;SDS011;3282;48.358;10.958;2022-07-06T06:10:36;5.57;;;3.13;;
6497;SDS011;3282;48.358;10.958;2022-07-06T06:13:06;5.93;;;3.30;;
6497;SDS011;3282;48.358;10.958;2022-07-06T06:15:34;10.30;;;3.22;;
6497;SDS011;3282;48.358;10.958;2022-07-06T06:18:02;8.00;;;3.40;;
6497;SDS011;3282;48.358;10.958;2022-07-06T06:20:30;7.35;;;3.40;;
6497;SDS011;3282;48.358;10.958;2022-07-06T06:22:58;7.60;;;3.40;;
6497;SDS011;3282;48.358;10.958;2022-07-06T06:25:30;6.80;;;3.35;;
6497;SDS011;3282;48.358;10.958;2022-07-06T06:28:06;7.95;;;3.30;;
6497;SDS011;3282;48.358;10.958;2022-07-06T06:30:34;7.13;;;3.40;;
6497;SDS011;3282;48.358;10.958;2022-07-06T06:33:10;7.78;;;3.00;;
6497;SDS011;3282;48.358;10.958;2022-07-06T06:35:41;7.43;;;3.20;;
6497;SDS011;3282;48.358;10.958;2022-07-06T06:38:10;7.80;;;2.90;;
6497;SDS011;3282;48.358;10.958;2022-07-06T06:40:38;5.07;;;3.08;;
6497;SDS011;3282;48.358;10.958;2022-07-06T06:43:04;5.07;;;2.63;;
6497;SDS011;3282;48.358;10.958;2022-07-06T06:45:35;9.60;;;3.10;;
6497;SDS011;3282;48.358;10.958;2022-07-06T06:48:02;7.55;;;2.92;;
6497;SDS011;3282;48.358;10.958;2022-07-06T06:50:29;10.18;;;3.00;;
6497;SDS011;3282;48.358;10.958;2022-07-06T06:52:55;6.10;;;2.85;;
6497;SDS011;3282;48.358;10.958;2022-07-06T06:55:22;6.43;;;3.10;;
6497;SDS011;3282;48.358;10.958;2022-07-06T06:57:49;8.80;;;2.83;;
6497;SDS011;3282;48.358;10.958;2022-07-06T07:00:15;6.70;;;2.80;;
6497;SDS011;3282;48.358;10.958;2022-07-06T07:02:42;6.35;;;3.15;;
6497;SDS011;3282;48.358;10.958;2022-07-06T07:05:09;7.57;;;3.38;;
6497;SDS011;3282;48.358;10.958;2022-07-06T07:07:36;7.70;;;3.20;;
6497;SDS011;3282;48.358;10.958;2022-07-06T07:10:03;9.23;;;3.25;;
6497;SDS011;3282;48.358;10.958;2022-07-06T07:12:31;15.65;;;3.70;;
6497;SDS011;3282;48.358;10.958;2022-07-06T07:14:59;6.78;;;3.33;;
6497;SDS011;3282;48.358;10.958;2022-07-06T07:17:26;7.68;;;3.05;;
6497;SDS011;3282;48.358;10.958;2022-07-06T07:19:53;5.32;;;3.33;;
6497;SDS011;3282;48.358;10.958;2022-07-06T07:22:19;6.10;;;3.00;;
6497;SDS011;3282;48.358;10.958;2022-07-06T07:24:46;5.85;;;3.00;;
6497;SDS011;3282;48.358;10.958;2022-07-06T07:27:13;7.20;;;2.88;;
6497;SDS011;3282;48.358;10.958;2022-07-06T07:29:40;4.97;;;2.92;;
6497;SDS011;3282;48.358;10.958;2022-07-06T07:32:07;9.70;;;3.45;;
6497;SDS011;3282;48.358;10.958;2022-07-06T07:34:33;6.22;;;3.13;;
6497;SDS011;3282;48.358;10.958;2022-07-06T07:37:00;5.57;;;3.10;;
6497;SDS011;3282;48.358;10.958;2022-07-06T07:39:26;8.93;;;3.75;;
6497;SDS011;3282;48.358;10.958;2022-07-06T07:41:53;7.78;;;3.17;;
6497;SDS011;3282;48.358;10.958;2022-07-06T07:44:19;6.10;;;3.30;;
6497;SDS011;3282;48.358;10.958;2022-07-06T07:46:46;6.28;;;3.30;;
6497;SDS011;3282;48.358;10.958;2022-07-06T07:49:13;5.10;;;3.30;;
6497;SDS011;3282;48.358;10.958;2022-07-06T07:51:47;9.63;;;3.15;;
6497;SDS011;3282;48.358;10.958;2022-07-06T07:54:14;5.85;;;3.40;;
6497;SDS011;3282;48.358;10.958;2022-07-06T07:56:41;7.47;;;3.25;;
6497;SDS011;3282;48.358;10.958;2022-07-06T07:59:08;7.00;;;3.33;;
6497;SDS011;3282;48.358;10.958;2022-07-06T08:01:36;5.15;;;2.70;;
6497;SDS011;3282;48.358;10.958;2022-07-06T08:04:03;6.20;;;3.40;;
6497;SDS011;3282;48.358;10.958;2022-07-06T08:06:30;4.80;;;3.05;;
6497;SDS011;3282;48.358;10.958;2022-07-06T08:08:57;6.35;;;2.92;;
6497;SDS011;3282;48.358;10.958;2022-07-06T08:11:23;7.03;;;2.92;;
6497;SDS011;3282;48.358;10.958;2022-07-06T08:13:50;5.80;;;2.90;;
6497;SDS011;3282;48.358;10.958;2022-07-06T08:16:16;8.43;;;2.88;;
6497;SDS011;3282;48.358;10.958;2022-07-06T08:18:43;13.95;;;2.92;;
6497;SDS011;3282;48.358;10.958;2022-07-06T08:21:10;7.90;;;3.22;;
6497;SDS011;3282;48.358;10.958;2022-07-06T08:23:54;7.03;;;3.20;;
6497;SDS011;3282;48.358;10.958;2022-07-06T08:26:21;5.60;;;3.25;;
6497;SDS011;3282;48.358;10.958;2022-07-06T08:28:48;7.70;;;3.13;;
6497;SDS011;3282;48.358;10.958;2022-07-06T08:31:15;7.65;;;3.33;;
6497;SDS011;3282;48.358;10.958;2022-07-06T08:34:02;10.63;;;3.28;;
6497;SDS011;3282;48.358;10.958;2022-07-06T08:36:29;5.93;;;3.20;;
6497;SDS011;3282;48.358;10.958;2022-07-06T08:38:57;5.70;;;3.05;;
6497;SDS011;3282;48.358;10.958;2022-07-06T08:41:25;7.22;;;3.20;;
6497;SDS011;3282;48.358;10.958;2022-07-06T08:43:54;5.43;;;2.80;;
6497;SDS011;3282;48.358;10.958;2022-07-06T08:46:21;8.43;;;2.80;;
6497;SDS011;3282;48.358;10.958;2022-07-06T08:48:49;6.43;;;3.00;;
6497;SDS011;3282;48.358;10.958;2022-07-06T08:51:17;6.10;;;3.13;;
6497;SDS011;3282;48.358;10.958;2022-07-06T08:53:45;5.43;;;2.97;;
6497;SDS011;3282;48.358;10.958;2022-07-06T08:56:15;7.57;;;3.00;;
6497;SDS011;3282;48.358;10.958;2022-07-06T08:58:42;6.47;;;2.85;;
6497;SDS011;3282;48.358;10.958;2022-07-06T09:01:09;7.05;;;2.88;;
6497;SDS011;3282;48.358;10.958;2022-07-06T09:03:39;7.40;;;2.97;;
6497;SDS011;3282;48.358;10.958;2022-07-06T09:06:06;6.80;;;3.10;;
6497;SDS011;3282;48.358;10.958;2022-07-06T09:08:34;6.22;;;2.90;;
6497;SDS011;3282;48.358;10.958;2022-07-06T09:11:03;7.38;;;3.47;;
6497;SDS011;3282;48.358;10.958;2022-07-06T09:13:30;6.90;;;3.30;;
6497;SDS011;3282;48.358;10.958;2022-07-06T09:16:08;6.50;;;3.20;;
6497;SDS011;3282;48.358;10.958;2022-07-06T09:18:55;4.97;;;2.85;;
6497;SDS011;3282;48.358;10.958;2022-07-06T09:21:26;5.35;;;2.80;;
6497;SDS011;3282;48.358;10.958;2022-07-06T09:24:00;9.25;;;2.83;;
6497;SDS011;3282;48.358;10.958;2022-07-06T09:26:30;7.45;;;3.08;;
6497;SDS011;3282;48.358;10.958;2022-07-06T09:28:57;7.32;;;3.28;;
6497;SDS011;3282;48.358;10.958;2022-07-06T09:31:25;7.22;;;3.00;;
6497;SDS011;3282;48.358;10.958;2022-07-06T09:33:56;8.63;;;2.78;;
6497;SDS011;3282;48.358;10.958;2022-07-06T09:39:14;5.78;;;2.72;;
6497;SDS011;3282;48.358;10.958;2022-07-06T09:41:52;6.25;;;2.80;;
6497;SDS011;3282;48.358;10.958;2022-07-06T09:44:21;5.35;;;2.75;;
6497;SDS011;3282;48.358;10.958;2022-07-06T09:46:55;5.60;;;2.50;;
6497;SDS011;3282;48.358;10.958;2022-07-06T09:49:23;4.57;;;2.65;;
6497;SDS011;3282;48.358;10.958;2022-07-06T09:51:51;7.40;;;2.90;;
6497;SDS011;3282;48.358;10.958;2022-07-06T09:54:22;6.53;;;2.90;;
6497;SDS011;3282;48.358;10.958;2022-07-06T09:56:50;7.68;;;2.50;;
6497;SDS011;3282;48.358;10.958;2022-07-06T09:59:20;5.82;;;2.88;;
6497;SDS011;3282;48.358;10.958;2022-07-06T10:01:52;4.65;;;2.83;;
6497;SDS011;3282;48.358;10.958;2022-07-06T10:04:23;4.68;;;2.83;;
6497;SDS011;3282;48.358;10.958;2022-07-06T10:06:51;4.18;;;2.75;;
6497;SDS011;3282;48.358;10.958;2022-07-06T10:09:18;4.88;;;2.53;;
6497;SDS011;3282;48.358;10.958;2022-07-06T10:11:49;5.43;;;2.50;;
6497;SDS011;3282;48.358;10.958;2022-07-06T10:14:18;6.35;;;2.80;;
6497;SDS011;3282;48.358;10.958;2022-07-06T10:16:48;6.40;;;2.47;;
6497;SDS011;3282;48.358;10.958;2022-07-06T10:19:16;4.40;;;2.90;;
6497;SDS011;3282;48.358;10.958;2022-07-06T10:21:43;7.45;;;2.90;;
6497;SDS011;3282;48.358;10.958;2022-07-06T10:24:11;4.03;;;2.92;;
6497;SDS011;3282;48.358;10.958;2022-07-06T10:26:39;6.65;;;3.00;;
6497;SDS011;3282;48.358;10.958;2022-07-06T10:29:06;6.78;;;3.10;;
6497;SDS011;3282;48.358;10.958;2022-07-06T10:31:34;3.88;;;2.70;;
6497;SDS011;3282;48.358;10.958;2022-07-06T10:34:04;5.03;;;2.80;;
6497;SDS011;3282;48.358;10.958;2022-07-06T10:36:36;3.60;;;2.50;;
6497;SDS011;3282;48.358;10.958;2022-07-06T10:39:09;5.40;;;2.88;;
6497;SDS011;3282;48.358;10.958;2022-07-06T10:41:56;5.88;;;2.78;;
6497;SDS011;3282;48.358;10.958;2022-07-06T10:44:24;3.65;;;2.40;;
6497;SDS011;3282;48.358;10.958;2022-07-06T10:49:20;5.13;;;2.60;;
6497;SDS011;3282;48.358;10.958;2022-07-06T10:52:07;4.90;;;2.47;;
6497;SDS011;3282;48.358;10.958;2022-07-06T10:54:38;5.22;;;2.50;;
6497;SDS011;3282;48.358;10.958;2022-07-06T10:57:09;6.43;;;2.60;;
6497;SDS011;3282;48.358;10.958;2022-07-06T10:59:36;6.00;;;2.65;;
6497;SDS011;3282;48.358;10.958;2022-07-06T11:02:13;5.65;;;2.50;;
6497;SDS011;3282;48.358;10.958;2022-07-06T11:04:41;6.43;;;2.60;;
6497;SDS011;3282;48.358;10.958;2022-07-06T11:07:16;4.70;;;2.80;;
6497;SDS011;3282;48.358;10.958;2022-07-06T11:09:57;4.30;;;2.65;;
6497;SDS011;3282;48.358;10.958;2022-07-06T11:12:25;3.92;;;2.50;;
6497;SDS011;3282;48.358;10.958;2022-07-06T11:14:52;4.82;;;2.80;;
6497;SDS011;3282;48.358;10.958;2022-07-06T11:17:21;7.18;;;2.80;;
6497;SDS011;3282;48.358;10.958;2022-07-06T11:19:55;5.50;;;2.80;;
6497;SDS011;3282;48.358;10.958;2022-07-06T11:22:23;5.82;;;2.38;;
6497;SDS011;3282;48.358;10.958;2022-07-06T11:24:50;4.90;;;2.17;;
6497;SDS011;3282;48.358;10.958;2022-07-06T11:27:22;4.82;;;2.30;;
6497;SDS011;3282;48.358;10.958;2022-07-06T11:29:49;5.50;;;2.40;;
6497;SDS011;3282;48.358;10.958;2022-07-06T11:32:16;9.32;;;2.35;;
6497;SDS011;3282;48.358;10.958;2022-07-06T11:34:50;7.32;;;2.22;;
6497;SDS011;3282;48.358;10.958;2022-07-06T11:37:17;5.35;;;2.40;;
6497;SDS011;3282;48.358;10.958;2022-07-06T11:39:45;5.28;;;2.47;;
6497;SDS011;3282;48.358;10.958;2022-07-06T11:42:14;4.75;;;2.13;;
6497;SDS011;3282;48.358;10.958;2022-07-06T11:44:43;4.32;;;2.08;;
6497;SDS011;3282;48.358;10.958;2022-07-06T11:47:11;8.07;;;2.00;;
6497;SDS011;3282;48.358;10.958;2022-07-06T11:49:39;8.82;;;2.10;;
6497;SDS011;3282;48.358;10.958;2022-07-06T11:52:10;3.75;;;2.00;;
6497;SDS011;3282;48.358;10.958;2022-07-06T11:54:38;7.07;;;1.98;;
6497;SDS011;3282;48.358;10.958;2022-07-06T11:57:09;4.47;;;1.90;;
6497;SDS011;3282;48.358;10.958;2022-07-06T11:59:40;3.88;;;2.08;;
6497;SDS011;3282;48.358;10.958;2022-07-06T12:02:12;5.05;;;2.00;;
6497;SDS011;3282;48.358;10.958;2022-07-06T12:07:13;8.40;;;2.30;;
6497;SDS011;3282;48.358;10.958;2022-07-06T12:09:42;4.40;;;2.30;;
6497;SDS011;3282;48.358;10.958;2022-07-06T12:12:10;5.80;;;2.45;;
6497;SDS011;3282;48.358;10.958;2022-07-06T12:14:38;7.25;;;2.22;;
6497;SDS011;3282;48.358;10.958;2022-07-06T12:17:14;6.70;;;2.50;;
6497;SDS011;3282;48.358;10.958;2022-07-06T12:19:42;5.22;;;2.30;;
6497;SDS011;3282;48.358;10.958;2022-07-06T12:22:09;4.88;;;2.50;;
6497;SDS011;3282;48.358;10.958;2022-07-06T12:24:37;3.75;;;2.10;;
6497;SDS011;3282;48.358;10.958;2022-07-06T12:29:40;7.15;;;2.45;;
6497;SDS011;3282;48.358;10.958;2022-07-06T12:32:07;6.78;;;2.20;;
6497;SDS011;3282;48.358;10.958;2022-07-06T12:34:39;4.05;;;2.33;;
6497;SDS011;3282;48.358;10.958;2022-07-06T12:37:07;3.97;;;2.10;;
6497;SDS011;3282;48.358;10.958;2022-07-06T12:39:47;6.43;;;2.40;;
6497;SDS011;3282;48.358;10.958;2022-07-06T12:42:16;5.72;;;2.50;;
6497;SDS011;3282;48.358;10.958;2022-07-06T12:47:16;3.28;;;2.10;;
6497;SDS011;3282;48.358;10.958;2022-07-06T12:49:45;4.70;;;2.13;;
6497;SDS011;3282;48.358;10.958;2022-07-06T12:52:13;4.80;;;2.17;;
6497;SDS011;3282;48.358;10.958;2022-07-06T12:54:44;3.55;;;2.08;;
6497;SDS011;3282;48.358;10.958;2022-07-06T12:57:14;4.88;;;2.10;;
6497;SDS011;3282;48.358;10.958;2022-07-06T12:59:48;6.00;;;2.22;;
6497;SDS011;3282;48.358;10.958;2022-07-06T13:05:17;3.58;;;2.08;;
6497;SDS011;3282;48.358;10.958;2022-07-06T13:07:45;3.67;;;1.80;;
6497;SDS011;3282;48.358;10.958;2022-07-06T13:10:13;3.40;;;1.90;;
6497;SDS011;3282;48.358;10.958;2022-07-06T13:12:41;5.50;;;2.10;;
6497;SDS011;3282;48.358;10.958;2022-07-06T13:15:08;4.05;;;2.30;;
6497;SDS011;3282;48.358;10.958;2022-07-06T13:17:35;4.85;;;2.10;;
6497;SDS011;3282;48.358;10.958;2022-07-06T13:20:07;4.97;;;2.00;;
6497;SDS011;3282;48.358;10.958;2022-07-06T13:22:35;4.65;;;1.90;;
6497;SDS011;3282;48.358;10.958;2022-07-06T13:25:02;4.55;;;2.20;;
6497;SDS011;3282;48.358;10.958;2022-07-06T13:27:29;4.15;;;2.28;;
6497;SDS011;3282;48.358;10.958;2022-07-06T13:29:56;6.07;;;2.00;;
6497;SDS011;3282;48.358;10.958;2022-07-06T13:32:23;5.55;;;1.80;;
6497;SDS011;3282;48.358;10.958;2022-07-06T13:34:50;6.93;;;2.10;;
6497;SDS011;3282;48.358;10.958;2022-07-06T13:37:17;3.90;;;1.88;;
6497;SDS011;3282;48.358;10.958;2022-07-06T13:39:46;4.55;;;1.90;;
6497;SDS011;3282;48.358;10.958;2022-07-06T13:42:12;2.70;;;1.73;;
6497;SDS011;3282;48.358;10.958;2022-07-06T13:44:39;5.45;;;1.98;;
6497;SDS011;3282;48.358;10.958;2022-07-06T13:47:05;4.03;;;2.00;;
6497;SDS011;3282;48.358;10.958;2022-07-06T13:49:32;4.45;;;1.88;;
6497;SDS011;3282;48.358;10.958;2022-07-06T13:51:59;7.50;;;1.90;;
6497;SDS011;3282;48.358;10.958;2022-07-06T13:54:30;4.82;;;2.08;;
6497;SDS011;3282;48.358;10.958;2022-07-06T13:56:57;3.95;;;2.10;;
6497;SDS011;3282;48.358;10.958;2022-07-06T13:59:26;7.25;;;2.10;;
6497;SDS011;3282;48.358;10.958;2022-07-06T14:01:53;4.50;;;2.00;;
6497;SDS011;3282;48.358;10.958;2022-07-06T14:04:20;7.07;;;1.90;;
6497;SDS011;3282;48.358;10.958;2022-07-06T14:06:47;4.63;;;2.10;;
6497;SDS011;3282;48.358;10.958;2022-07-06T14:09:13;7.45;;;2.30;;
6497;SDS011;3282;48.358;10.958;2022-07-06T14:11:40;5.40;;;2.22;;
6497;SDS011;3282;48.358;10.958;2022-07-06T14:14:07;6.45;;;2.50;;
6497;SDS011;3282;48.358;10.958;2022-07-06T14:16:36;4.03;;;2.10;;
6497;SDS011;3282;48.358;10.958;2022-07-06T14:19:03;3.53;;;2.00;;
6497;SDS011;3282;48.358;10.958;2022-07-06T14:21:29;5.25;;;2.20;;
6497;SDS011;3282;48.358;10.958;2022-07-06T14:23:56;4.22;;;2.10;;
6497;SDS011;3282;48.358;10.958;2022-07-06T14:26:23;5.88;;;2.20;;
6497;SDS011;3282;48.358;10.958;2022-07-06T14:28:50;3.38;;;2.00;;
6497;SDS011;3282;48.358;10.958;2022-07-06T14:31:16;5.20;;;2.30;;
6497;SDS011;3282;48.358;10.958;2022-07-06T14:33:47;4.88;;;2.10;;
6497;SDS011;3282;48.358;10.958;2022-07-06T14:36:15;4.25;;;2.20;;
6497;SDS011;3282;48.358;10.958;2022-07-06T14:38:42;3.92;;;2.30;;
6497;SDS011;3282;48.358;10.958;2022-07-06T14:41:09;4.35;;;2.00;;
6497;SDS011;3282;48.358;10.958;2022-07-06T14:43:36;3.90;;;2.20;;
6497;SDS011;3282;48.358;10.958;2022-07-06T14:46:03;4.30;;;2.20;;
6497;SDS011;3282;48.358;10.958;2022-07-06T14:48:30;4.00;;;2.30;;
6497;SDS011;3282;48.358;10.958;2022-07-06T14:50:57;7.57;;;2.40;;
6497;SDS011;3282;48.358;10.958;2022-07-06T14:53:24;7.53;;;2.30;;
6497;SDS011;3282;48.358;10.958;2022-07-06T14:55:51;8.48;;;2.45;;
6497;SDS011;3282;48.358;10.958;2022-07-06T14:58:18;5.05;;;2.33;;
6497;SDS011;3282;48.358;10.958;2022-07-06T15:00:45;5.50;;;2.50;;
6497;SDS011;3282;48.358;10.958;2022-07-06T15:03:12;5.57;;;2.38;;
6497;SDS011;3282;48.358;10.958;2022-07-06T15:05:39;4.45;;;2.10;;
6497;SDS011;3282;48.358;10.958;2022-07-06T15:08:05;6.78;;;2.40;;
6497;SDS011;3282;48.358;10.958;2022-07-06T15:10:32;7.57;;;2.30;;
6497;SDS011;3282;48.358;10.958;2022-07-06T15:12:59;8.25;;;2.33;;
6497;SDS011;3282;48.358;10.958;2022-07-06T15:15:25;5.38;;;2.55;;
6497;SDS011;3282;48.358;10.958;2022-07-06T15:18:12;5.00;;;2.30;;
6497;SDS011;3282;48.358;10.958;2022-07-06T15:20:39;8.02;;;2.30;;
6497;SDS011;3282;48.358;10.958;2022-07-06T15:23:05;4.63;;;2.28;;